Time;durP1;ratioP1;P1;durP2;ratioP2;P2;SDS_P1;SDS_P2;PMS_P1;PMS_P2;Temp;Humidity;BMP_temperature;BMP_pressure;BME280_temperature;BME280_humidity;BME280_pressure;Samples;Min_cycle;Max_cycle;Signal;HPM_P1;HPM_P2
2021/09/20 00:00:40;;;;;;;9.68;6.82;;;;;;;19.23;78.09;100170.41;5087818;28;20055;-67
2021/09/20 00:03:05;;;;;;;12.02;6.68;;;;;;;19.10;78.27;100165.22;5088211;28;20413;-67
2021/09/20 00:05:31;;;;;;;9.73;6.15;;;;;;;19.13;77.99;100160.88;5087904;28;20442;-68
2021/09/20 00:07:56;;;;;;;11.63;6.72;;;;;;;19.15;77.69;100159.13;5088156;28;20095;-72
2021/09/20 00:10:22;;;;;;;9.30;6.22;;;;;;;19.33;77.29;100149.47;5088367;28;20482;-71
2021/09/20 00:12:47;;;;;;;12.73;6.55;;;;;;;19.44;76.54;100160.75;5088519;28;20032;-71
2021/09/20 00:15:13;;;;;;;10.65;6.60;;;;;;;19.45;76.33;100162.50;5091786;28;20414;-71
2021/09/20 00:17:40;;;;;;;11.27;6.30;;;;;;;19.53;75.55;100154.59;5049745;28;20103;-71
2021/09/20 00:20:08;;;;;;;10.93;6.65;;;;;;;19.67;74.25;100159.75;5034431;28;20032;-72
2021/09/20 00:22:34;;;;;;;9.88;6.22;;;;;;;19.40;74.48;100111.88;5034284;28;20491;-68
2021/09/20 00:25:00;;;;;;;14.40;7.00;;;;;;;19.52;74.29;100126.66;5034228;28;20037;-70
2021/09/20 00:27:25;;;;;;;10.82;6.18;;;;;;;19.70;73.28;100144.91;5034059;28;20033;-72
2021/09/20 00:29:52;;;;;;;7.63;6.20;;;;;;;19.58;73.04;100155.44;5033986;28;20030;-70
2021/09/20 00:32:18;;;;;;;9.57;6.75;;;;;;;19.53;73.91;100144.13;5033987;28;20068;-74
2021/09/20 00:34:43;;;;;;;10.98;6.70;;;;;;;19.68;74.18;100148.41;5033845;28;20502;-69
2021/09/20 00:37:10;;;;;;;8.10;6.25;;;;;;;19.64;72.60;100138.81;5033771;28;20025;-70
2021/09/20 00:39:35;;;;;;;10.20;6.20;;;;;;;19.61;73.34;100155.41;5033683;28;20029;-70
2021/09/20 00:42:01;;;;;;;9.70;6.70;;;;;;;19.31;73.76;100131.13;5034109;28;20017;-69
2021/09/20 00:44:26;;;;;;;12.80;6.53;;;;;;;19.46;74.56;100155.50;5065508;28;20025;-74
2021/09/20 00:46:52;;;;;;;15.65;7.22;;;;;;;19.54;75.07;100158.97;5065526;28;20119;-69
2021/09/20 00:49:17;;;;;;;9.38;6.38;;;;;;;19.48;75.40;100151.13;5033879;28;20065;-72
2021/09/20 00:51:43;;;;;;;11.07;5.93;;;;;;;19.45;75.57;100152.03;5033369;28;20361;-74
2021/09/20 00:54:09;;;;;;;9.77;6.97;;;;;;;19.45;75.14;100151.13;5032362;28;20107;-70
2021/09/20 00:56:34;;;;;;;12.55;6.57;;;;;;;19.49;74.67;100158.09;5033186;28;20029;-69
2021/09/20 00:59:00;;;;;;;11.18;6.53;;;;;;;19.51;74.59;100157.19;5033020;28;20050;-70
2021/09/20 01:01:26;;;;;;;11.05;7.03;;;;;;;19.30;73.97;100118.94;5033669;28;20536;-69
2021/09/20 01:03:52;;;;;;;12.98;7.32;;;;;;;19.51;73.68;100151.09;5033113;28;20025;-69
2021/09/20 01:06:17;;;;;;;12.32;7.00;;;;;;;19.42;73.49;100130.22;5033257;28;20159;-72
2021/09/20 01:08:43;;;;;;;12.82;6.80;;;;;;;19.59;73.60;100156.28;5024725;28;20034;-73
2021/09/20 01:11:09;;;;;;;15.02;6.95;;;;;;;19.60;73.69;100147.56;5026929;28;20029;-73
2021/09/20 01:13:34;;;;;;;11.07;7.00;;;;;;;19.59;73.53;100149.34;5030015;28;20036;-72
2021/09/20 01:15:59;;;;;;;11.35;5.97;;;;;;;19.48;73.84;100130.19;5033086;28;20033;-72
2021/09/20 01:18:25;;;;;;;9.32;6.05;;;;;;;19.42;74.06;100136.31;5032984;28;20020;-72
2021/09/20 01:20:50;;;;;;;11.13;6.75;;;;;;;19.41;74.05;100126.72;5033024;28;20120;-78
2021/09/20 01:23:17;;;;;;;8.23;6.07;;;;;;;19.40;73.89;100119.72;5033013;28;20414;-71
2021/09/20 01:25:43;;;;;;;9.85;6.20;;;;;;;19.20;73.00;100094.56;5023433;28;20526;-72
2021/09/20 01:28:09;;;;;;;10.38;6.10;;;;;;;19.29;73.32;100127.66;5022166;28;20018;-73
2021/09/20 01:30:35;;;;;;;10.13;6.22;;;;;;;19.24;73.33;100111.13;5015691;28;20061;-73
2021/09/20 01:33:01;;;;;;;11.23;6.43;;;;;;;19.21;73.37;100111.97;5022528;28;20069;-72
2021/09/20 01:35:28;;;;;;;8.98;6.40;;;;;;;19.20;73.38;100127.69;5014582;28;20033;-72
2021/09/20 01:37:54;;;;;;;10.18;6.15;;;;;;;19.28;72.84;100135.50;5014728;28;20033;-74
2021/09/20 01:40:20;;;;;;;10.50;6.22;;;;;;;18.99;73.91;100139.09;5013094;28;20033;-73
2021/09/20 01:42:45;;;;;;;9.73;6.07;;;;;;;18.87;74.50;100138.22;5044074;28;20527;-69
2021/09/20 01:45:13;;;;;;;8.73;6.35;;;;;;;18.54;75.07;100113.91;5023841;28;20108;-72
2021/09/20 01:47:39;;;;;;;8.93;6.75;;;;;;;18.51;76.77;100118.25;5031879;28;20542;-72
2021/09/20 01:50:06;;;;;;;10.18;6.85;;;;;;;18.52;77.33;100128.69;5031754;28;20033;-72
2021/09/20 01:52:32;;;;;;;8.18;6.70;;;;;;;18.52;76.73;100141.78;5021845;28;20017;-73
2021/09/20 01:54:58;;;;;;;8.80;6.63;;;;;;;18.33;78.78;100126.97;5015676;28;20030;-71
2021/09/20 01:57:23;;;;;;;9.35;6.80;;;;;;;18.15;79.38;100131.31;5014216;28;20071;-71
2021/09/20 01:59:52;;;;;;;10.60;7.28;;;;;;;18.19;79.72;100137.44;5013440;28;20060;-72
2021/09/20 02:02:18;;;;;;;9.52;6.68;;;;;;;18.14;79.46;100121.75;5012891;28;20014;-74
2021/09/20 02:04:44;;;;;;;11.98;6.93;;;;;;;18.21;79.77;100135.69;5012740;28;20065;-72
2021/09/20 02:07:10;;;;;;;12.02;6.75;;;;;;;18.24;79.55;100131.34;5012535;28;20064;-74
2021/09/20 02:09:35;;;;;;;9.93;6.82;;;;;;;18.07;78.90;100097.38;5011819;28;20053;-70
2021/09/20 02:12:02;;;;;;;13.77;7.38;;;;;;;18.33;79.47;100134.81;5014483;28;20038;-74
2021/09/20 02:14:27;;;;;;;12.73;7.30;;;;;;;18.33;79.53;100124.34;5019870;28;20026;-75
2021/09/20 02:16:53;;;;;;;12.93;7.47;;;;;;;18.38;79.57;100123.50;5032128;28;20086;-77
2021/09/20 02:19:20;;;;;;;11.18;7.22;;;;;;;18.46;79.39;100120.00;5032021;28;20376;-76
2021/09/20 02:21:46;;;;;;;14.13;7.60;;;;;;;18.53;78.51;100121.72;5032050;28;20029;-79
2021/09/20 02:24:11;;;;;;;15.85;7.10;;;;;;;18.66;77.41;100118.22;5023559;28;20029;-77
2021/09/20 02:26:37;;;;;;;14.40;7.13;;;;;;;18.59;77.19;100106.91;5020089;28;20083;-77
2021/09/20 02:29:03;;;;;;;10.80;6.80;;;;;;;18.65;77.55;100110.38;5017897;28;20033;-75
2021/09/20 02:31:29;;;;;;;11.70;7.40;;;;;;;18.68;77.52;100113.88;5011860;28;20484;-76
2021/09/20 02:33:55;;;;;;;10.60;6.65;;;;;;;18.79;77.53;100128.66;5014188;28;20032;-78
2021/09/20 02:36:20;;;;;;;10.18;7.40;;;;;;;18.36;78.08;100082.56;5015096;28;20029;-79
2021/09/20 02:38:46;;;;;;;9.63;6.80;;;;;;;18.55;78.28;100123.44;5031078;28;20017;-77
2021/09/20 02:41:11;;;;;;;10.02;7.38;;;;;;;18.51;78.46;100110.41;5031671;28;20113;-75
2021/09/20 02:43:38;;;;;;;9.07;6.75;;;;;;;18.39;78.26;100101.72;5031824;28;20044;-85
2021/09/20 02:46:04;;;;;;;11.88;7.40;;;;;;;18.44;77.82;100096.47;5043925;28;20021;-76
2021/09/20 02:48:29;;;;;;;9.55;7.38;;;;;;;18.27;77.79;100073.84;5013221;28;20026;-78
2021/09/20 02:50:55;;;;;;;11.77;7.70;;;;;;;18.46;77.79;100101.72;5011756;28;20109;-76
2021/09/20 02:53:21;;;;;;;9.98;7.95;;;;;;;18.45;77.72;100103.44;5015058;28;20038;-77
2021/09/20 02:55:46;;;;;;;16.13;8.45;;;;;;;18.41;77.56;100099.09;5019533;28;20022;-74
2021/09/20 02:58:12;;;;;;;9.27;7.75;;;;;;;18.43;77.41;100094.75;5029661;28;20033;-80
2021/09/20 03:00:37;;;;;;;11.40;7.50;;;;;;;18.45;76.38;100097.34;5031194;28;20056;-73
2021/09/20 03:03:05;;;;;;;8.00;6.65;;;;;;;18.32;77.25;100093.88;5031261;28;20389;-75
2021/09/20 03:05:31;;;;;;;15.20;7.57;;;;;;;18.40;77.84;100094.75;5031322;28;20083;-79
2021/09/20 03:07:56;;;;;;;10.75;7.47;;;;;;;18.40;76.82;100097.34;5030912;28;20030;-80
2021/09/20 03:10:22;;;;;;;9.55;6.75;;;;;;;18.22;76.86;100104.34;5030983;28;20033;-77
2021/09/20 03:12:47;;;;;;;11.68;7.15;;;;;;;18.07;77.94;100106.97;5031592;28;20018;-77
2021/09/20 03:15:12;;;;;;;9.80;6.13;;;;;;;17.92;78.54;100111.25;5030768;28;20022;-75
2021/09/20 03:17:38;;;;;;;7.85;6.07;;;;;;;18.07;78.56;100122.63;5063138;28;20017;-75
2021/09/20 03:20:04;;;;;;;6.78;5.50;;;;;;;18.10;78.26;100106.94;5031018;28;20030;-80
2021/09/20 03:22:30;;;;;;;8.95;5.15;;;;;;;17.86;78.05;100071.22;5012116;28;20041;-76
2021/09/20 03:24:55;;;;;;;6.40;4.72;;;;;;;17.89;78.59;100094.72;5030848;28;20034;-73
2021/09/20 03:27:21;;;;;;;9.82;4.78;;;;;;;17.80;78.54;100098.19;5030821;28;20407;-76
2021/09/20 03:29:47;;;;;;;8.05;5.43;;;;;;;17.89;78.18;100106.00;5031405;28;20057;-75
2021/09/20 03:32:12;;;;;;;10.13;5.65;;;;;;;17.85;77.85;100100.81;5031233;28;20041;-74
2021/09/20 03:34:38;;;;;;;6.85;5.60;;;;;;;18.00;77.27;100118.28;5031009;28;20468;-74
2021/09/20 03:37:03;;;;;;;9.63;6.15;;;;;;;17.47;77.06;100026.81;5031161;28;20391;-74
2021/09/20 03:39:29;;;;;;;11.05;6.80;;;;;;;17.89;77.39;100103.41;5030985;28;20068;-78
2021/09/20 03:41:54;;;;;;;12.50;8.35;;;;;;;17.82;77.11;100092.97;5031309;28;20427;-76
2021/09/20 03:44:20;;;;;;;13.65;9.15;;;;;;;17.73;78.06;100110.38;5030901;28;20074;-76
2021/09/20 03:46:45;;;;;;;9.98;7.55;;;;;;;17.66;79.07;100113.84;5030771;28;20484;-75
2021/09/20 03:49:11;;;;;;;9.30;7.20;;;;;;;17.65;79.60;100114.69;5033690;28;20068;-75
2021/09/20 03:51:36;;;;;;;10.75;6.28;;;;;;;17.52;80.46;100111.19;5034619;28;20034;-77
2021/09/20 03:54:03;;;;;;;9.52;6.53;;;;;;;17.61;80.18;100123.41;5034370;28;20427;-75
2021/09/20 03:56:28;;;;;;;9.88;6.40;;;;;;;17.68;79.93;100121.66;5035115;28;20029;-74
2021/09/20 03:58:54;;;;;;;8.45;7.10;;;;;;;17.49;79.99;100097.25;5033250;28;20407;-77
2021/09/20 04:01:19;;;;;;;8.02;7.22;;;;;;;17.65;80.42;100134.72;5034409;28;20403;-78
2021/09/20 04:03:45;;;;;;;9.18;6.70;;;;;;;17.45;79.66;100112.91;5034308;28;20021;-76
2021/09/20 04:06:10;;;;;;;9.43;6.93;;;;;;;17.14;80.55;100143.22;5034647;28;20033;-75
2021/09/20 04:08:36;;;;;;;11.30;7.45;;;;;;;16.55;83.49;100160.19;5033841;28;20037;-77
2021/09/20 04:11:01;;;;;;;14.40;7.53;;;;;;;16.07;86.44;100159.81;5034247;28;20028;-78
2021/09/20 04:13:27;;;;;;;16.98;7.82;;;;;;;16.04;87.38;100142.44;5034176;28;20411;-75
2021/09/20 04:15:56;;;;;;;11.07;8.55;;;;;;;16.25;87.14;100165.19;5031754;28;20079;-78
2021/09/20 04:18:22;;;;;;;10.25;7.88;;;;;;;16.26;87.14;100169.56;5027427;28;20480;-78
2021/09/20 04:20:49;;;;;;;10.38;6.80;;;;;;;16.52;86.37;100175.81;5034372;28;20496;-78
2021/09/20 04:23:15;;;;;;;7.85;6.60;;;;;;;16.73;85.45;100177.72;5034482;28;20112;-77
2021/09/20 04:25:41;;;;;;;15.30;7.13;;;;;;;16.88;84.14;100176.94;5034774;28;20034;-77
2021/09/20 04:28:06;;;;;;;7.80;6.85;;;;;;;16.71;83.65;100132.50;5034419;28;20025;-78
2021/09/20 04:30:32;;;;;;;8.20;6.47;;;;;;;16.93;83.32;100155.28;5034145;28;20039;-76
2021/09/20 04:32:58;;;;;;;10.07;6.55;;;;;;;17.01;82.77;100154.44;5033368;28;20037;-77
2021/09/20 04:35:23;;;;;;;8.27;6.45;;;;;;;17.16;82.26;100157.16;5032444;28;20503;-76
2021/09/20 04:37:49;;;;;;;8.68;6.72;;;;;;;17.38;81.65;100175.50;5033775;28;20022;-76
2021/09/20 04:40:14;;;;;;;9.15;6.82;;;;;;;17.48;81.04;100173.81;5033857;28;20040;-77
2021/09/20 04:42:40;;;;;;;18.98;7.00;;;;;;;17.18;81.85;100171.06;5034334;28;20022;-80
2021/09/20 04:45:06;;;;;;;10.38;7.07;;;;;;;17.13;82.68;100185.81;5033688;28;20472;-78
2021/09/20 04:47:32;;;;;;;8.93;6.65;;;;;;;17.23;82.11;100173.69;5033403;28;20115;-74
2021/09/20 04:49:57;;;;;;;10.15;6.63;;;;;;;17.42;81.88;100185.06;5032840;28;20096;-81
2021/09/20 04:52:23;;;;;;;10.40;6.53;;;;;;;17.25;82.09;100169.38;5033885;28;20021;-81
2021/09/20 04:54:48;;;;;;;9.82;6.47;;;;;;;17.22;82.94;100178.06;5034076;28;20033;-81
2021/09/20 04:57:14;;;;;;;12.20;6.57;;;;;;;17.20;82.59;100130.22;5032893;28;20021;-81
2021/09/20 04:59:39;;;;;;;10.02;6.10;;;;;;;17.45;82.36;100169.44;5032942;28;20045;-81
2021/09/20 05:02:05;;;;;;;7.32;5.80;;;;;;;17.45;82.30;100148.56;5033108;28;20120;-81
2021/09/20 05:04:30;;;;;;;10.15;6.18;;;;;;;17.68;81.96;100166.03;5033047;28;20018;-81
2021/09/20 05:06:55;;;;;;;7.43;6.63;;;;;;;17.57;81.78;100135.56;5032930;28;20025;-84
2021/09/20 05:09:21;;;;;;;7.40;5.90;;;;;;;17.81;81.56;100152.16;5032219;28;20018;-81
2021/09/20 05:11:46;;;;;;;9.88;6.75;;;;;;;17.77;81.29;100147.81;5033751;28;20400;-81
2021/09/20 05:14:13;;;;;;;9.30;6.25;;;;;;;17.99;81.15;100189.66;5025944;28;20033;-82
2021/09/20 05:16:38;;;;;;;9.93;7.28;;;;;;;18.02;81.57;100181.81;5033235;28;20049;-81
2021/09/20 05:19:04;;;;;;;7.88;6.95;;;;;;;18.13;81.46;100194.91;5033161;28;20053;-76
2021/09/20 05:21:29;;;;;;;13.30;7.35;;;;;;;18.21;81.57;100183.59;5033086;28;20033;-77
2021/09/20 05:23:55;;;;;;;11.30;7.80;;;;;;;18.14;82.41;100174.00;5033076;28;20557;-77
2021/09/20 05:26:20;;;;;;;11.25;7.88;;;;;;;18.19;82.36;100179.22;5033270;28;20033;-76
2021/09/20 05:28:46;;;;;;;9.25;7.32;;;;;;;18.20;82.66;100181.84;5033219;28;20075;-77
2021/09/20 05:31:12;;;;;;;10.68;7.40;;;;;;;18.19;81.97;100124.38;5032985;28;20070;-76
2021/09/20 05:33:37;;;;;;;9.73;7.93;;;;;;;18.52;82.08;100165.31;5020466;28;20443;-79
2021/09/20 05:36:05;;;;;;;9.20;7.20;;;;;;;18.44;81.81;100161.81;5013029;28;20454;-77
2021/09/20 05:38:31;;;;;;;13.55;8.02;;;;;;;18.15;83.27;100147.00;5013280;28;20108;-77
2021/09/20 05:40:58;;;;;;;12.00;8.23;;;;;;;18.43;82.79;100167.94;5013019;28;20038;-80
2021/09/20 05:43:24;;;;;;;14.65;8.15;;;;;;;18.54;82.40;100176.63;5012995;28;20516;-76
2021/09/20 05:45:50;;;;;;;12.40;8.10;;;;;;;18.50;82.05;100159.19;5013041;28;20104;-74
2021/09/20 05:48:16;;;;;;;12.48;8.07;;;;;;;18.53;82.21;100153.97;5012636;28;20115;-75
2021/09/20 05:50:43;;;;;;;11.10;7.75;;;;;;;18.56;82.72;100164.41;5012864;28;20022;-76
2021/09/20 05:53:08;;;;;;;12.63;8.27;;;;;;;18.45;82.89;100147.88;5011397;28;20045;-76
2021/09/20 05:55:34;;;;;;;10.68;8.13;;;;;;;18.64;83.45;100182.75;5025572;28;20033;-80
2021/09/20 05:57:59;;;;;;;16.48;9.25;;;;;;;18.54;83.62;100171.41;5032609;28;20464;-76
2021/09/20 06:00:25;;;;;;;12.38;9.55;;;;;;;18.46;84.41;100164.44;5032277;28;20049;-76
2021/09/20 06:02:51;;;;;;;12.93;8.73;;;;;;;18.53;85.65;100176.63;5032390;28;20097;-75
2021/09/20 06:05:17;;;;;;;9.40;8.40;;;;;;;18.38;85.49;100144.41;5032518;28;20031;-77
2021/09/20 06:07:42;;;;;;;9.75;8.73;;;;;;;18.60;85.11;100170.53;5032354;28;20108;-76
2021/09/20 06:10:09;;;;;;;12.73;9.00;;;;;;;18.67;85.09;100171.41;5032838;28;20129;-77
2021/09/20 06:12:35;;;;;;;12.52;9.00;;;;;;;18.54;85.09;100160.94;5046392;28;20033;-77
2021/09/20 06:15:01;;;;;;;11.63;8.43;;;;;;;18.64;84.63;100160.94;5032237;28;20026;-76
2021/09/20 06:17:27;;;;;;;9.82;8.45;;;;;;;18.48;84.42;100136.53;5032096;28;20112;-75
2021/09/20 06:19:52;;;;;;;11.80;8.70;;;;;;;18.86;84.56;100196.63;5032277;28;20124;-74
2021/09/20 06:22:18;;;;;;;13.52;9.63;;;;;;;18.94;83.77;100182.72;5032421;28;20033;-76
2021/09/20 06:24:43;;;;;;;11.68;9.07;;;;;;;18.94;83.38;100164.41;5032142;28;20408;-75
2021/09/20 06:27:09;;;;;;;12.07;9.30;;;;;;;19.16;82.81;100189.63;5031800;28;20116;-74
2021/09/20 06:29:34;;;;;;;15.93;9.15;;;;;;;19.21;82.13;100197.47;5032025;28;20030;-77
2021/09/20 06:32:00;;;;;;;12.48;8.90;;;;;;;19.21;81.70;100192.22;5031882;28;20038;-74
2021/09/20 06:34:26;;;;;;;13.15;8.93;;;;;;;19.30;81.59;100187.00;5031761;28;20120;-75
2021/09/20 06:36:52;;;;;;;11.18;8.90;;;;;;;19.28;82.60;100196.59;5032039;28;20037;-74
2021/09/20 06:39:17;;;;;;;13.43;9.82;;;;;;;19.24;82.75;100190.47;5031834;28;20025;-75
2021/09/20 06:41:43;;;;;;;12.25;8.93;;;;;;;19.30;83.20;100193.94;5031589;28;20099;-76
2021/09/20 06:44:09;;;;;;;11.60;9.85;;;;;;;19.19;83.17;100175.66;5031840;28;20056;-76
2021/09/20 06:46:36;;;;;;;15.32;10.20;;;;;;;19.47;82.60;100200.00;5031702;28;20033;-76
2021/09/20 06:49:03;;;;;;;14.82;9.63;;;;;;;19.54;82.96;100186.00;5031667;28;20030;-76
2021/09/20 06:51:29;;;;;;;12.50;9.93;;;;;;;19.51;82.45;100167.66;5031946;28;20108;-76
2021/09/20 06:53:55;;;;;;;15.77;9.80;;;;;;;19.67;81.25;100172.84;5031690;28;20088;-73
2021/09/20 06:56:22;;;;;;;11.90;9.48;;;;;;;19.76;80.84;100172.78;5031593;28;20049;-75
2021/09/20 06:58:47;;;;;;;16.00;9.30;;;;;;;19.97;80.37;100189.31;5031305;28;20053;-75
2021/09/20 07:01:14;;;;;;;15.07;8.90;;;;;;;19.80;80.15;100179.78;5031007;28;20388;-78
2021/09/20 07:03:40;;;;;;;10.82;9.35;;;;;;;19.77;80.10;100182.38;5031323;28;20022;-74
2021/09/20 07:06:06;;;;;;;17.25;9.30;;;;;;;19.90;80.26;100172.75;5031176;28;20490;-74
2021/09/20 07:08:32;;;;;;;12.35;8.93;;;;;;;20.02;80.04;100175.28;5031685;28;20395;-75
2021/09/20 07:10:58;;;;;;;12.73;9.23;;;;;;;19.82;79.13;100120.38;5031583;28;20030;-75
2021/09/20 07:13:24;;;;;;;13.13;9.15;;;;;;;20.16;79.31;100162.09;5031286;28;20034;-76
2021/09/20 07:15:49;;;;;;;15.57;9.60;;;;;;;20.29;79.20;100181.22;5046431;28;20021;-79
2021/09/20 07:18:14;;;;;;;13.98;8.75;;;;;;;20.18;78.91;100128.88;5031247;28;20029;-77
2021/09/20 07:20:40;;;;;;;11.52;8.60;;;;;;;20.38;78.80;100158.44;5031144;28;20026;-74
2021/09/20 07:23:05;;;;;;;10.38;8.10;;;;;;;20.39;77.89;100147.03;5030523;28;20083;-74
2021/09/20 07:25:31;;;;;;;12.52;8.70;;;;;;;20.40;77.78;100162.78;5031128;28;20037;-75
2021/09/20 07:27:56;;;;;;;12.70;8.77;;;;;;;20.52;77.22;100183.66;5031144;28;20464;-73
2021/09/20 07:30:22;;;;;;;13.88;8.48;;;;;;;20.53;76.52;100155.66;5031033;28;20464;-75
2021/09/20 07:32:50;;;;;;;15.93;9.40;;;;;;;20.65;76.39;100170.44;5031166;28;20034;-78
2021/09/20 07:35:17;;;;;;;14.43;8.35;;;;;;;20.81;76.25;100179.91;5031254;28;20103;-74
2021/09/20 07:37:54;;;;;;;13.98;8.75;;;;;;;20.92;75.30;100174.56;5030965;28;20112;-75
2021/09/20 07:40:22;;;;;;;11.95;8.68;;;;;;;20.99;74.92;100157.00;5030840;28;20053;-80
2021/09/20 07:42:50;;;;;;;13.48;8.38;;;;;;;21.06;74.46;100150.81;5031189;28;20026;-75
2021/09/20 07:45:15;;;;;;;14.32;8.80;;;;;;;21.31;73.85;100182.03;5030977;28;20099;-74
2021/09/20 07:47:41;;;;;;;13.40;8.55;;;;;;;21.36;73.39;100192.44;5030855;28;20112;-74
2021/09/20 07:50:08;;;;;;;11.32;7.90;;;;;;;21.07;73.03;100173.53;5031021;28;20025;-75
2021/09/20 07:52:33;;;;;;;16.02;8.35;;;;;;;21.24;74.34;100186.44;5030148;28;20513;-84
2021/09/20 07:54:59;;;;;;;13.95;8.35;;;;;;;21.36;73.01;100193.34;5026708;28;20163;-78
2021/09/20 07:57:26;;;;;;;14.20;8.40;;;;;;;21.44;72.48;100167.81;5031075;28;20037;-77
2021/09/20 07:59:51;;;;;;;12.88;8.30;;;;;;;21.56;72.99;100161.59;5030917;28;20142;-78
2021/09/20 08:02:17;;;;;;;14.00;8.35;;;;;;;21.50;74.32;100146.72;5031004;28;20080;-77
2021/09/20 08:04:42;;;;;;;11.10;8.38;;;;;;;21.72;73.67;100180.66;5030974;28;20029;-80
2021/09/20 08:07:08;;;;;;;13.75;7.95;;;;;;;21.68;71.22;100189.44;5030893;28;20475;-81
2021/09/20 08:09:33;;;;;;;12.02;7.18;;;;;;;21.40;70.87;100170.53;5030777;28;20036;-78
2021/09/20 08:11:59;;;;;;;12.45;7.43;;;;;;;21.61;70.34;100169.41;5030676;28;20028;-78
2021/09/20 08:14:24;;;;;;;14.50;8.45;;;;;;;21.71;69.63;100180.63;5029221;28;20041;-78
2021/09/20 08:16:50;;;;;;;13.52;8.63;;;;;;;21.84;69.62;100191.88;5030659;28;20041;-77
2021/09/20 08:19:16;;;;;;;11.90;7.53;;;;;;;21.86;69.16;100155.91;5030730;28;20026;-78
2021/09/20 08:21:41;;;;;;;12.45;7.25;;;;;;;22.01;69.10;100171.47;5030647;28;20105;-79
2021/09/20 08:24:07;;;;;;;12.13;6.97;;;;;;;22.19;69.43;100187.84;5030628;28;20385;-78
2021/09/20 08:26:32;;;;;;;9.60;6.53;;;;;;;22.21;68.96;100171.16;5030898;28;20507;-80
2021/09/20 08:28:58;;;;;;;9.85;6.15;;;;;;;22.15;66.99;100137.06;5030283;28;20026;-78
2021/09/20 08:31:23;;;;;;;13.38;6.53;;;;;;;22.18;66.34;100129.16;5030754;28;20037;-78
2021/09/20 08:33:49;;;;;;;9.90;6.47;;;;;;;22.43;66.86;100160.31;5030525;28;20460;-77
2021/09/20 08:36:15;;;;;;;11.43;6.25;;;;;;;22.50;67.04;100172.47;5032986;28;20407;-78
2021/09/20 08:38:40;;;;;;;8.25;5.65;;;;;;;22.47;65.22;100167.28;5030700;28;20028;-78
2021/09/20 08:41:06;;;;;;;11.00;5.70;;;;;;;22.67;63.37;100156.38;5022088;28;20463;-80
2021/09/20 08:43:32;;;;;;;9.32;5.03;;;;;;;22.81;62.54;100134.22;5024217;28;20077;-77
2021/09/20 08:46:03;;;;;;;9.93;5.75;;;;;;;23.07;62.67;100150.34;5027573;28;20033;-77
2021/09/20 08:48:35;;;;;;;13.68;5.88;;;;;;;23.30;61.52;100145.56;5031113;28;20033;-78
2021/09/20 08:51:01;;;;;;;11.63;6.30;;;;;;;23.18;62.11;100146.66;5031414;28;20094;-81
2021/09/20 08:53:26;;;;;;;8.95;5.85;;;;;;;23.27;62.97;100147.34;5031817;28;20033;-78
2021/09/20 08:55:52;;;;;;;12.75;6.50;;;;;;;23.25;62.71;100125.47;5028760;28;20482;-79
2021/09/20 08:58:17;;;;;;;16.00;6.10;;;;;;;23.53;62.21;100124.00;5012065;28;20029;-77
2021/09/20 09:00:43;;;;;;;21.83;7.03;;;;;;;23.92;62.08;100126.63;5030538;28;20060;-77
2021/09/20 09:03:08;;;;;;;12.48;5.97;;;;;;;24.18;61.63;100122.50;5040224;28;20513;-77
2021/09/20 09:05:36;;;;;;;13.05;5.93;;;;;;;24.31;60.49;100105.47;5033893;28;20025;-76
2021/09/20 09:08:06;;;;;;;10.70;5.80;;;;;;;24.62;60.89;100117.81;5036042;28;20088;-72
2021/09/20 09:10:35;;;;;;;16.45;6.25;;;;;;;24.82;60.19;100116.47;5017919;28;20033;-72
2021/09/20 09:13:04;;;;;;;14.57;6.15;;;;;;;24.92;57.42;100104.72;5033147;28;20040;-78
2021/09/20 09:15:31;;;;;;;9.75;5.15;;;;;;;24.96;56.96;100085.25;5033025;28;20091;-75
2021/09/20 09:17:58;;;;;;;50.75;6.35;;;;;;;25.01;56.14;100088.63;5033451;28;20473;-74
2021/09/20 09:20:29;;;;;;;11.25;5.32;;;;;;;24.96;55.33;100066.78;5033039;28;20040;-76
2021/09/20 09:23:00;;;;;;;11.30;5.07;;;;;;;25.18;56.98;100063.47;5031834;28;20116;-74
2021/09/20 09:25:48;;;;;;;11.32;4.88;;;;;;;25.52;55.04;100083.59;5045542;28;20034;-75
2021/09/20 09:28:25;;;;;;;9.73;4.93;;;;;;;25.55;54.49;100077.41;5032854;28;20087;-70
2021/09/20 09:30:56;;;;;;;7.97;4.63;;;;;;;25.57;54.69;100060.56;5023047;28;20060;-72
2021/09/20 09:33:35;;;;;;;8.45;4.82;;;;;;;25.68;55.69;100066.38;5017429;28;20033;-74
2021/09/20 09:36:02;;;;;;;11.88;4.40;;;;;;;25.84;54.19;100061.47;5016927;28;20021;-74
2021/09/20 09:38:28;;;;;;;10.90;4.88;;;;;;;26.04;52.27;100064.34;5018595;28;20073;-73
2021/09/20 09:41:02;;;;;;;7.40;3.85;;;;;;;25.91;51.99;100062.09;5018445;28;20500;-74
2021/09/20 09:43:36;;;;;;;7.82;4.60;;;;;;;25.84;52.97;100056.16;5036245;28;20038;-72
2021/09/20 09:46:23;;;;;;;17.83;4.63;;;;;;;26.09;52.97;100054.50;5016549;28;20105;-73
2021/09/20 09:48:51;;;;;;;9.60;4.32;;;;;;;26.03;51.95;100052.03;5018972;28;20373;-74
2021/09/20 09:51:19;;;;;;;7.82;4.55;;;;;;;26.09;51.93;100042.13;5017785;28;20472;-73
2021/09/20 09:53:48;;;;;;;7.70;4.20;;;;;;;25.71;53.12;100049.53;5013288;28;20026;-73
2021/09/20 09:56:13;;;;;;;8.63;4.68;;;;;;;25.53;54.05;100053.63;5013728;28;20041;-72
2021/09/20 09:59:00;;;;;;;7.60;4.78;;;;;;;25.36;54.69;100056.78;5011734;28;20373;-71
2021/09/20 10:01:36;;;;;;;11.43;5.00;;;;;;;25.28;55.21;100050.88;5013121;28;20037;-71
2021/09/20 10:04:15;;;;;;;8.10;4.38;;;;;;;25.50;54.47;100048.47;5011650;28;20117;-71
2021/09/20 10:06:40;;;;;;;10.48;5.05;;;;;;;25.79;53.35;100041.34;5019242;28;20030;-71
2021/09/20 10:09:12;;;;;;;11.23;4.28;;;;;;;26.03;52.46;100039.66;5019856;28;20559;-67
2021/09/20 10:11:40;;;;;;;11.13;4.88;;;;;;;25.99;52.12;100017.75;5029287;28;20032;-72
2021/09/20 10:14:07;;;;;;;11.15;5.40;;;;;;;26.27;51.93;100040.63;5020209;28;20028;-74
2021/09/20 10:16:34;;;;;;;9.32;4.72;;;;;;;26.52;53.30;100045.06;5029908;28;20064;-72
2021/09/20 10:19:00;;;;;;;12.95;5.63;;;;;;;26.55;53.06;100041.44;5012370;28;20451;-73
2021/09/20 10:21:26;;;;;;;11.27;4.50;;;;;;;26.61;51.27;100034.13;5016092;28;20029;-74
2021/09/20 10:23:54;;;;;;;7.97;4.00;;;;;;;26.94;49.84;100038.25;5015914;28;20126;-76
2021/09/20 10:26:20;;;;;;;13.60;4.28;;;;;;;27.20;48.66;100021.31;5013257;28;20037;-75
2021/09/20 10:28:52;;;;;;;11.93;4.18;;;;;;;27.39;48.42;100026.78;5014707;28;20064;-72
2021/09/20 10:31:19;;;;;;;8.90;3.67;;;;;;;27.38;47.59;100010.94;5031823;28;20027;-72
2021/09/20 10:33:45;;;;;;;10.68;4.05;;;;;;;27.54;47.58;100020.03;5018561;28;20104;-72
2021/09/20 10:36:11;;;;;;;8.48;3.97;;;;;;;27.54;47.60;100024.44;5014365;28;20045;-73
2021/09/20 10:38:36;;;;;;;9.55;4.25;;;;;;;27.75;46.78;100018.28;5012983;28;20093;-77
2021/09/20 10:41:24;;;;;;;8.45;4.43;;;;;;;27.75;47.40;100017.41;5013192;28;20022;-73
2021/09/20 10:44:08;;;;;;;10.65;4.50;;;;;;;27.42;47.66;100000.16;5011837;28;20026;-75
2021/09/20 10:46:39;;;;;;;7.53;4.15;;;;;;;27.54;48.66;100012.06;5011370;28;20026;-74
2021/09/20 10:49:16;;;;;;;11.45;4.53;;;;;;;27.90;47.04;99999.97;5015015;28;20120;-72
2021/09/20 10:51:42;;;;;;;11.15;4.53;;;;;;;27.86;46.56;99980.66;5019590;28;20559;-83
2021/09/20 10:54:23;;;;;;;11.30;4.43;;;;;;;28.07;45.83;99994.81;5018580;28;20116;-79
2021/09/20 10:56:55;;;;;;;11.40;4.63;;;;;;;28.13;46.22;99969.81;5018299;28;20472;-76
2021/09/20 10:59:25;;;;;;;7.97;4.10;;;;;;;28.14;46.53;99998.09;5021935;28;20068;-74
2021/09/20 11:01:55;;;;;;;7.90;4.00;;;;;;;28.20;45.55;99989.88;5021614;28;20025;-76
2021/09/20 11:04:27;;;;;;;7.57;3.88;;;;;;;28.04;45.61;99986.16;5015981;28;20022;-74
2021/09/20 11:07:02;;;;;;;8.75;4.18;;;;;;;27.80;46.07;99980.06;5021084;28;20526;-73
2021/09/20 11:09:27;;;;;;;10.82;3.83;;;;;;;27.90;45.79;99976.09;5022320;28;20039;-70
2021/09/20 11:12:02;;;;;;;7.15;4.15;;;;;;;27.93;45.62;99976.81;5021481;28;20406;-72
2021/09/20 11:14:42;;;;;;;8.00;3.78;;;;;;;27.96;46.08;99972.31;5029116;28;20025;-75
2021/09/20 11:17:18;;;;;;;;;;;;;;;27.77;46.54;99957.19;5021974;28;20163;-69
2021/09/20 11:19:45;;;;;;;7.80;3.60;;;;;;;27.85;45.96;99952.44;5023971;28;20272;-70